createdAt,value
2022-12-31T02:38:32.024Z,0.00
2022-12-31T02:41:32.199Z,0.00
2022-12-31T02:43:31.979Z,0.00
2022-12-31T02:45:32.363Z,0.00
2022-12-31T02:46:32.207Z,0.00
2022-12-31T02:47:31.902Z,0.00
2022-12-31T02:48:32.110Z,0.00
2022-12-31T02:49:32.111Z,0.00
2022-12-31T02:50:31.910Z,0.00
2022-12-31T02:51:31.878Z,0.00
2022-12-31T02:52:37.903Z,0.00
2022-12-31T02:53:31.833Z,0.00
2022-12-31T02:54:31.835Z,0.00
2022-12-31T02:55:31.844Z,0.00
2022-12-31T02:56:31.832Z,0.00
2022-12-31T02:57:31.854Z,0.00
2022-12-31T02:58:31.787Z,0.00
2022-12-31T02:59:37.816Z,0.00
2022-12-31T03:00:31.813Z,0.00
2022-12-31T03:01:31.920Z,0.00
2022-12-31T03:02:31.857Z,0.00
2022-12-31T03:03:31.728Z,0.00
2022-12-31T03:04:31.751Z,0.00
2022-12-31T03:05:31.920Z,0.00
2022-12-31T03:06:37.741Z,0.00
2022-12-31T03:07:31.782Z,0.00
2022-12-31T03:08:31.690Z,0.00
2022-12-31T03:09:31.676Z,0.00
2022-12-31T03:10:31.645Z,0.00
2022-12-31T03:11:32.237Z,0.00
2022-12-31T03:12:31.688Z,0.00
2022-12-31T03:13:37.677Z,0.00
2022-12-31T03:14:31.621Z,0.00
2022-12-31T03:15:31.618Z,0.00
2022-12-31T03:16:31.647Z,0.00
2022-12-31T03:17:31.568Z,0.00
2022-12-31T03:18:31.792Z,0.00
2022-12-31T03:19:31.668Z,0.00
2022-12-31T03:21:08.508Z,0.00
2022-12-31T03:22:08.481Z,0.00
2022-12-31T03:23:08.452Z,0.00
2022-12-31T03:24:08.623Z,0.00
2022-12-31T03:25:08.495Z,0.00
2022-12-31T03:26:08.429Z,0.00
2022-12-31T03:27:51.388Z,0.00
2022-12-31T03:28:51.432Z,0.00
2022-12-31T03:31:46.831Z,0.00
2022-12-31T03:32:46.567Z,0.00
2022-12-31T03:33:46.555Z,0.00
2022-12-31T03:34:46.747Z,0.00
2022-12-31T03:35:46.534Z,0.00
2022-12-31T03:36:46.528Z,0.00
2022-12-31T03:37:52.541Z,0.00
2022-12-31T03:38:51.167Z,0.00
2022-12-31T03:39:53.983Z,0.00
2022-12-31T03:40:46.505Z,0.00
2022-12-31T03:41:46.487Z,0.00
2022-12-31T03:42:52.542Z,0.00
2022-12-31T03:44:59.765Z,0.00
2022-12-31T03:45:59.749Z,0.00
2022-12-31T03:47:05.564Z,0.00
2022-12-31T03:47:59.501Z,0.00
2022-12-31T03:48:59.486Z,0.00
2022-12-31T03:50:05.711Z,0.00
2022-12-31T03:50:59.681Z,0.00
2022-12-31T03:51:59.468Z,0.00
2022-12-31T03:52:59.462Z,0.00
2022-12-31T03:53:59.465Z,0.00
2022-12-31T03:54:59.446Z,0.00
2022-12-31T03:56:05.530Z,0.00
2022-12-31T03:57:00.346Z,0.00
2022-12-31T03:58:05.449Z,0.00
2022-12-31T03:58:59.373Z,0.00
2022-12-31T03:59:59.379Z,0.00
2022-12-31T04:00:59.568Z,0.00
2022-12-31T04:01:59.470Z,0.00
2022-12-31T04:02:59.447Z,0.00
2022-12-31T04:03:59.326Z,0.00
2022-12-31T04:04:59.350Z,0.00
2022-12-31T04:05:59.332Z,0.00
2022-12-31T04:07:05.397Z,0.00
2022-12-31T04:07:59.307Z,0.00
2022-12-31T04:08:59.322Z,0.00
2022-12-31T04:09:59.291Z,0.00
2022-12-31T04:10:59.279Z,0.00
2022-12-31T04:11:59.240Z,0.00
2022-12-31T04:12:59.486Z,0.00
2022-12-31T04:13:59.264Z,0.00
2022-12-31T04:14:59.217Z,0.00
2022-12-31T04:15:59.472Z,0.00
2022-12-31T04:16:59.254Z,0.00
2022-12-31T04:17:59.211Z,0.00
2022-12-31T04:18:59.160Z,0.00
2022-12-31T04:19:59.158Z,0.00
2022-12-31T04:20:59.154Z,0.00
2022-12-31T04:22:59.170Z,0.00
2022-12-31T04:23:59.118Z,0.00
2022-12-31T04:24:59.155Z,0.00
2022-12-31T04:27:05.364Z,0.00
2022-12-31T04:30:59.230Z,0.00
2022-12-31T04:35:58.986Z,0.00
2022-12-31T04:38:58.981Z,0.00
2022-12-31T04:59:58.911Z,0.00
2022-12-31T05:59:43.133Z,0.00
2022-12-31T06:57:23.759Z,0.00
2022-12-31T07:02:23.548Z,1.00
2022-12-31T07:04:23.649Z,1.00
2022-12-31T07:05:23.428Z,1.00
2022-12-31T07:06:23.626Z,1.00
2022-12-31T07:07:23.435Z,2.00
2022-12-31T07:08:23.389Z,2.00
2022-12-31T07:09:23.373Z,2.00
2022-12-31T07:10:29.262Z,3.00
2022-12-31T07:11:24.451Z,2.00
2022-12-31T07:12:23.464Z,3.00
2022-12-31T07:13:29.493Z,5.00
2022-12-31T07:14:23.389Z,5.00
2022-12-31T07:15:23.323Z,4.00
2022-12-31T07:16:23.324Z,2.00
2022-12-31T07:17:23.308Z,6.00
2022-12-31T07:18:23.482Z,4.00
2022-12-31T07:19:23.259Z,3.00
2022-12-31T07:20:29.312Z,6.00
2022-12-31T07:21:23.250Z,4.00
2022-12-31T07:22:23.469Z,6.00
2022-12-31T07:23:23.225Z,8.00
2022-12-31T07:24:29.307Z,11.00
2022-12-31T07:25:23.273Z,9.00
2022-12-31T07:26:23.650Z,8.00
2022-12-31T07:27:23.146Z,17.00
2022-12-31T07:28:23.229Z,15.00
2022-12-31T07:29:23.386Z,13.00
2022-12-31T07:30:23.171Z,16.00
2022-12-31T07:31:23.234Z,18.00
2022-12-31T07:32:23.159Z,27.00
2022-12-31T07:33:23.123Z,31.00
2022-12-31T07:34:29.178Z,35.00
2022-12-31T07:35:23.124Z,40.00
2022-12-31T07:37:23.107Z,38.00
2022-12-31T07:38:23.081Z,34.00
2022-12-31T07:39:23.074Z,43.00
2022-12-31T07:40:23.111Z,45.00
2022-12-31T07:41:23.064Z,47.00
2022-12-31T07:42:23.095Z,56.00
2022-12-31T07:44:23.051Z,49.00
2022-12-31T07:45:23.089Z,65.00
2022-12-31T07:46:23.018Z,64.00
2022-12-31T07:47:22.993Z,51.00
2022-12-31T07:48:22.965Z,66.00
2022-12-31T07:49:22.962Z,76.00
2022-12-31T07:50:22.964Z,61.00
2022-12-31T07:51:23.162Z,57.00
2022-12-31T07:52:22.947Z,71.00
2022-12-31T07:53:22.990Z,71.00
2022-12-31T07:54:22.943Z,112.00
2022-12-31T07:55:22.951Z,175.00
2022-12-31T07:56:22.886Z,88.00
2022-12-31T07:57:22.891Z,132.00
2022-12-31T07:58:22.869Z,132.00
2022-12-31T07:59:24.601Z,208.00
2022-12-31T08:00:22.918Z,183.00
2022-12-31T08:01:22.958Z,43.00
2022-12-31T08:02:23.161Z,140.00
2022-12-31T08:03:28.883Z,308.00
2022-12-31T08:04:22.802Z,169.00
2022-12-31T08:05:22.779Z,184.00
2022-12-31T08:06:22.791Z,319.00
2022-12-31T08:07:22.788Z,258.00
2022-12-31T08:08:22.745Z,316.00
2022-12-31T08:09:22.751Z,342.00
2022-12-31T08:10:22.765Z,411.00
2022-12-31T08:11:28.808Z,497.00
2022-12-31T08:12:22.717Z,466.00
2022-12-31T08:14:15.651Z,809.00
2022-12-31T08:15:26.858Z,822.00
2022-12-31T08:16:16.764Z,814.00
2022-12-31T08:17:15.597Z,754.00
2022-12-31T08:18:15.597Z,711.00
2022-12-31T08:19:15.542Z,751.00
2022-12-31T08:20:15.560Z,928.00
2022-12-31T08:21:15.746Z,881.00
2022-12-31T08:22:15.604Z,914.00
2022-12-31T08:23:15.695Z,955.00
2022-12-31T08:24:15.525Z,847.00
2022-12-31T08:25:15.722Z,1015.00
2022-12-31T08:26:15.482Z,1002.00
2022-12-31T08:27:15.495Z,1057.00
2022-12-31T08:28:15.476Z,1005.00
2022-12-31T08:29:15.441Z,1210.00
2022-12-31T08:30:15.439Z,1065.00
2022-12-31T08:31:21.523Z,1025.00
2022-12-31T08:32:15.426Z,1307.00
2022-12-31T08:33:21.491Z,1232.00
2022-12-31T08:34:15.422Z,1426.00
2022-12-31T08:35:15.393Z,1193.00
2022-12-31T08:36:15.394Z,955.00
2022-12-31T08:37:21.387Z,1164.00
2022-12-31T08:38:15.405Z,1547.00
2022-12-31T08:39:21.805Z,1364.00
2022-12-31T08:40:15.325Z,1506.00
2022-12-31T08:41:15.339Z,1412.00
2022-12-31T08:42:15.362Z,1180.00
2022-12-31T08:43:15.329Z,878.00
2022-12-31T08:44:15.320Z,1191.00
2022-12-31T08:45:15.497Z,1688.00
2022-12-31T08:46:21.338Z,1414.00
2022-12-31T08:47:21.331Z,1160.00
2022-12-31T08:48:15.276Z,1147.00
2022-12-31T08:49:15.441Z,2111.00
2022-12-31T08:50:15.480Z,1804.00
2022-12-31T08:51:15.211Z,1816.00
2022-12-31T08:52:15.192Z,2194.00
2022-12-31T08:53:15.200Z,2097.00
2022-12-31T08:54:15.412Z,2101.00
2022-12-31T08:55:15.184Z,2129.00
2022-12-31T08:56:21.222Z,1642.00
2022-12-31T08:57:17.239Z,2003.00
2022-12-31T08:58:15.183Z,2173.00
2022-12-31T08:59:15.150Z,2267.00
2022-12-31T09:00:15.127Z,966.00
2022-12-31T09:01:15.198Z,1878.00
2022-12-31T09:02:15.399Z,1192.00
2022-12-31T09:03:15.106Z,914.00
2022-12-31T09:04:15.147Z,960.00
2022-12-31T09:05:15.063Z,1096.00
2022-12-31T09:06:15.094Z,1190.00
2022-12-31T09:07:15.253Z,1276.00
2022-12-31T09:08:15.050Z,787.00
2022-12-31T09:09:21.068Z,893.00
2022-12-31T09:10:15.033Z,1394.00
2022-12-31T09:11:20.870Z,1034.00
2022-12-31T09:12:16.073Z,841.00
2022-12-31T09:13:14.985Z,876.00
2022-12-31T09:14:14.974Z,936.00
2022-12-31T09:15:14.972Z,1083.00
2022-12-31T09:16:15.007Z,1133.00
2022-12-31T09:17:14.963Z,1188.00
2022-12-31T09:18:14.973Z,1198.00
2022-12-31T09:19:14.959Z,1323.00
2022-12-31T09:20:15.137Z,1778.00
2022-12-31T09:21:14.891Z,2110.00
2022-12-31T09:22:15.105Z,1855.00
2022-12-31T09:23:14.918Z,2480.00
2022-12-31T09:24:14.861Z,2817.00
2022-12-31T09:25:14.874Z,2751.00
2022-12-31T09:26:14.869Z,2845.00
2022-12-31T09:27:14.894Z,2510.00
2022-12-31T09:28:15.033Z,3481.00
2022-12-31T09:29:14.830Z,4859.00
2022-12-31T09:30:14.786Z,3714.00
2022-12-31T09:31:14.892Z,3425.00
2022-12-31T09:32:14.759Z,3987.00
2022-12-31T09:33:14.775Z,4021.00
2022-12-31T09:34:14.792Z,4364.00
2022-12-31T09:35:14.773Z,3627.00
2022-12-31T09:36:14.726Z,2127.00
2022-12-31T09:37:14.725Z,4669.00
2022-12-31T09:38:14.718Z,3273.00
2022-12-31T09:39:14.980Z,1575.00
2022-12-31T09:40:15.721Z,4130.00
2022-12-31T09:41:14.674Z,2580.00
2022-12-31T09:42:14.670Z,1963.00
2022-12-31T09:43:14.882Z,1599.00
2022-12-31T09:44:14.663Z,4726.00
2022-12-31T09:45:14.649Z,5321.00
2022-12-31T09:46:14.708Z,6614.00
2022-12-31T09:47:14.839Z,5211.00
2022-12-31T09:48:14.605Z,5320.00
2022-12-31T09:49:14.602Z,4258.00
2022-12-31T09:50:14.604Z,3877.00
2022-12-31T09:51:16.324Z,5992.00
2022-12-31T09:52:14.554Z,10388.00
2022-12-31T09:53:20.589Z,4567.00
2022-12-31T09:54:14.730Z,4746.00
2022-12-31T09:55:20.757Z,7034.00
2022-12-31T09:56:20.797Z,9020.00
2022-12-31T09:57:14.711Z,10954.00
2022-12-31T09:58:14.498Z,11221.00
2022-12-31T09:59:14.506Z,20348.00
2022-12-31T10:00:14.681Z,21291.00
2022-12-31T10:01:14.615Z,8304.00
2022-12-31T10:02:55.398Z,8234.00
2022-12-31T10:03:55.294Z,9589.00
2022-12-31T10:04:55.295Z,4884.00
2022-12-31T10:06:01.321Z,4380.00
2022-12-31T10:06:55.423Z,3150.00
2022-12-31T10:07:55.246Z,3311.00
2022-12-31T10:08:55.434Z,2971.00
2022-12-31T10:09:55.522Z,2934.00
2022-12-31T10:10:55.440Z,2614.00
2022-12-31T10:11:55.233Z,11963.00
2022-12-31T10:12:55.196Z,8044.00
2022-12-31T10:13:55.196Z,4757.00
2022-12-31T10:14:55.393Z,26988.00
2022-12-31T10:15:55.166Z,5063.00
2022-12-31T10:16:55.214Z,25953.00
2022-12-31T10:18:01.223Z,5180.00
2022-12-31T10:18:55.124Z,14791.00
2022-12-31T10:19:55.148Z,27012.00
2022-12-31T10:20:55.129Z,11377.00
2022-12-31T10:22:01.213Z,7884.00
2022-12-31T10:22:55.099Z,3518.00
2022-12-31T10:23:55.081Z,20667.00
2022-12-31T10:25:01.107Z,14083.00
2022-12-31T10:25:55.061Z,6269.00
2022-12-31T10:26:55.088Z,5577.00
2022-12-31T10:27:55.046Z,4296.00
2022-12-31T10:28:55.037Z,5764.00
2022-12-31T10:29:55.082Z,5606.00
2022-12-31T10:30:55.093Z,6309.00
2022-12-31T10:31:55.013Z,4558.00
2022-12-31T10:32:54.996Z,4031.00
2022-12-31T10:33:54.983Z,3253.00
2022-12-31T10:34:54.979Z,3207.00
2022-12-31T10:35:55.003Z,3213.00
2022-12-31T10:36:55.011Z,3892.00
2022-12-31T10:37:54.963Z,3598.00
2022-12-31T10:38:54.964Z,1995.00
2022-12-31T10:39:54.911Z,4802.00
2022-12-31T10:40:54.981Z,3405.00
2022-12-31T10:41:55.146Z,2828.00
2022-12-31T10:42:54.869Z,13694.00
2022-12-31T10:43:54.861Z,5373.00
2022-12-31T10:44:55.048Z,6384.00
2022-12-31T10:45:55.172Z,2755.00
2022-12-31T10:46:54.859Z,1866.00
2022-12-31T10:48:00.905Z,8582.00
2022-12-31T10:48:54.836Z,4474.00
2022-12-31T10:49:54.826Z,5812.00
2022-12-31T10:50:54.870Z,4852.00
2022-12-31T10:51:54.807Z,3375.00
2022-12-31T10:52:54.971Z,3811.00
2022-12-31T10:53:54.815Z,3365.00
2022-12-31T10:54:54.756Z,3386.00
2022-12-31T10:55:54.949Z,4151.00
2022-12-31T10:56:54.735Z,4761.00
2022-12-31T10:57:58.687Z,4999.00
2022-12-31T10:58:55.760Z,5713.00
2022-12-31T10:59:54.724Z,6286.00
2022-12-31T11:01:01.003Z,4537.00
2022-12-31T11:01:54.796Z,3226.00
2022-12-31T11:02:54.778Z,20028.00
2022-12-31T11:03:54.911Z,15748.00
2022-12-31T11:04:54.896Z,15047.00
2022-12-31T11:05:54.627Z,16059.00
2022-12-31T11:06:54.640Z,23086.00
2022-12-31T11:07:54.652Z,16281.00
2022-12-31T11:08:54.599Z,18813.00
2022-12-31T11:09:54.619Z,16979.00
2022-12-31T11:10:54.606Z,13419.00
2022-12-31T11:11:54.767Z,21947.00
2022-12-31T11:12:54.558Z,17206.00
2022-12-31T11:13:54.553Z,10706.00
2022-12-31T11:14:54.576Z,9538.00
2022-12-31T11:15:54.588Z,6815.00
2022-12-31T11:16:54.531Z,5774.00
2022-12-31T11:17:54.568Z,5963.00
2022-12-31T11:18:54.504Z,5160.00
2022-12-31T11:20:00.553Z,5350.00
2022-12-31T11:20:54.460Z,5538.00
2022-12-31T11:21:54.471Z,5649.00
2022-12-31T11:22:54.490Z,5124.00
2022-12-31T11:23:54.423Z,5431.00
2022-12-31T11:24:54.435Z,5743.00
2022-12-31T11:25:54.447Z,5370.00
2022-12-31T11:27:00.462Z,6341.00
2022-12-31T11:27:54.431Z,6090.00
2022-12-31T11:28:54.373Z,5716.00
2022-12-31T11:29:54.383Z,5680.00
2022-12-31T11:30:54.424Z,5821.00
2022-12-31T11:31:54.345Z,5294.00
2022-12-31T11:32:54.365Z,5872.00
2022-12-31T11:33:54.353Z,6085.00
2022-12-31T11:35:00.378Z,6048.00
2022-12-31T11:35:54.310Z,5177.00
2022-12-31T11:36:54.510Z,5323.00
2022-12-31T11:37:54.517Z,4898.00
2022-12-31T11:38:54.487Z,4966.00
2022-12-31T11:39:54.280Z,5010.00
2022-12-31T11:40:54.346Z,5059.00
2022-12-31T11:42:00.296Z,4317.00
2022-12-31T11:42:54.474Z,6282.00
2022-12-31T11:43:54.216Z,6199.00
2022-12-31T11:44:54.295Z,6452.00
2022-12-31T11:45:54.228Z,5157.00
2022-12-31T11:46:54.203Z,5351.00
2022-12-31T11:48:29.141Z,4844.00
2022-12-31T11:48:55.219Z,6369.00
2022-12-31T11:49:54.189Z,6223.00
2022-12-31T11:50:54.352Z,7879.00
2022-12-31T11:51:54.178Z,6632.00
2022-12-31T11:52:54.129Z,5519.00
2022-12-31T11:53:54.144Z,5007.00
2022-12-31T11:55:00.182Z,4936.00
2022-12-31T11:55:54.122Z,4772.00
2022-12-31T11:57:00.325Z,4914.00
2022-12-31T11:57:55.151Z,4907.00
2022-12-31T11:58:54.280Z,4937.00
2022-12-31T11:59:54.250Z,4826.00
2022-12-31T12:01:00.173Z,4738.00
2022-12-31T12:01:54.063Z,4733.00
2022-12-31T12:02:54.136Z,4703.00
2022-12-31T12:03:56.108Z,4650.00
2022-12-31T12:04:54.002Z,4241.00
2022-12-31T12:05:54.007Z,5986.00
2022-12-31T12:06:54.416Z,5537.00
2022-12-31T12:07:53.978Z,4907.00
2022-12-31T12:08:53.966Z,4873.00
2022-12-31T12:09:53.974Z,4523.00
2022-12-31T12:10:53.950Z,5874.00
2022-12-31T12:11:53.956Z,4934.00
2022-12-31T12:12:54.141Z,4667.00
2022-12-31T12:13:54.147Z,4500.00
2022-12-31T12:14:53.897Z,4478.00
2022-12-31T12:17:04.360Z,4429.00
2022-12-31T12:18:00.047Z,4375.00
2022-12-31T12:18:58.960Z,4447.00
2022-12-31T12:19:58.980Z,4358.00
2022-12-31T12:20:58.943Z,4524.00
2022-12-31T12:21:58.995Z,4583.00
2022-12-31T12:22:59.119Z,4648.00
2022-12-31T12:23:58.934Z,4492.00
2022-12-31T12:24:58.903Z,4577.00
2022-12-31T12:25:58.908Z,4572.00
2022-12-31T12:26:58.884Z,4732.00
2022-12-31T12:27:58.904Z,4572.00
2022-12-31T12:28:58.911Z,4958.00
2022-12-31T12:29:58.883Z,4680.00
2022-12-31T12:30:59.088Z,4569.00
2022-12-31T12:31:58.832Z,4374.00
2022-12-31T12:32:58.821Z,4265.00
2022-12-31T12:33:58.842Z,4168.00
2022-12-31T12:34:58.836Z,4121.00
2022-12-31T12:35:58.860Z,4144.00
2022-12-31T12:37:05.103Z,4223.00
2022-12-31T12:37:58.798Z,3904.00
2022-12-31T12:38:58.754Z,4574.00
2022-12-31T12:39:58.739Z,5489.00
2022-12-31T12:40:58.743Z,4390.00
2022-12-31T12:41:58.717Z,4515.00
2022-12-31T12:42:58.955Z,4816.00
2022-12-31T12:43:58.720Z,4475.00
2022-12-31T12:44:58.724Z,4323.00
2022-12-31T12:45:58.679Z,4153.00
2022-12-31T12:46:58.952Z,4173.00
2022-12-31T12:47:58.720Z,4102.00
2022-12-31T12:48:58.690Z,4021.00
2022-12-31T12:49:58.675Z,3995.00
2022-12-31T12:50:58.648Z,4127.00
2022-12-31T12:51:58.665Z,4112.00
2022-12-31T12:52:59.718Z,4104.00
2022-12-31T12:54:04.651Z,4127.00
2022-12-31T12:54:58.597Z,4226.00
2022-12-31T12:55:58.603Z,4166.00
2022-12-31T12:56:58.565Z,4362.00
2022-12-31T12:57:58.575Z,4535.00
2022-12-31T12:58:58.575Z,4821.00
2022-12-31T12:59:58.519Z,5076.00
2022-12-31T13:00:58.717Z,4987.00
2022-12-31T13:01:58.653Z,4892.00
2022-12-31T13:02:58.772Z,4563.00
2022-12-31T13:04:58.496Z,4736.00
2022-12-31T13:05:58.708Z,4317.00
2022-12-31T13:06:58.574Z,4300.00
2022-12-31T13:07:58.671Z,4265.00
2022-12-31T13:08:58.722Z,4248.00
2022-12-31T13:09:58.446Z,4306.00
2022-12-31T13:10:58.645Z,4145.00
2022-12-31T13:12:03.789Z,4202.00
2022-12-31T13:13:23.720Z,4229.00
2022-12-31T13:13:59.620Z,4064.00
2022-12-31T13:14:58.408Z,4196.00
2022-12-31T13:15:58.418Z,4364.00
2022-12-31T13:16:58.415Z,4257.00
2022-12-31T13:18:01.666Z,4175.00
2022-12-31T13:19:04.380Z,3984.00
2022-12-31T13:19:58.572Z,3879.00
2022-12-31T13:20:58.323Z,3873.00
2022-12-31T13:21:58.305Z,3706.00
2022-12-31T13:22:58.309Z,3780.00
2022-12-31T13:24:04.346Z,3951.00
2022-12-31T13:24:58.304Z,4077.00
2022-12-31T13:25:58.255Z,3654.00
2022-12-31T13:26:58.243Z,3735.00
2022-12-31T13:27:58.280Z,4074.00
2022-12-31T13:28:58.261Z,3798.00
2022-12-31T13:29:58.292Z,3610.00
2022-12-31T13:31:06.980Z,3682.00
2022-12-31T13:31:58.310Z,3529.00
2022-12-31T13:32:58.280Z,3410.00
2022-12-31T13:34:04.301Z,3340.00
2022-12-31T13:34:58.228Z,3516.00
2022-12-31T13:35:58.232Z,3440.00
2022-12-31T13:36:58.229Z,3444.00
2022-12-31T13:38:04.814Z,3689.00
2022-12-31T13:38:59.245Z,3698.00
2022-12-31T13:40:39.193Z,3510.00
2022-12-31T13:41:38.982Z,3518.00
2022-12-31T13:42:38.973Z,3493.00
2022-12-31T13:43:39.163Z,3482.00
2022-12-31T13:44:38.945Z,3537.00
2022-12-31T13:45:38.936Z,3458.00
2022-12-31T13:46:45.364Z,3427.00
2022-12-31T13:47:38.893Z,3334.00
2022-12-31T13:48:44.948Z,3360.00
2022-12-31T13:49:45.099Z,3337.00
2022-12-31T13:50:38.851Z,3270.00
2022-12-31T13:51:38.846Z,3178.00
2022-12-31T13:52:45.072Z,3133.00
2022-12-31T13:53:38.821Z,3053.00
2022-12-31T13:54:38.813Z,2980.00
2022-12-31T13:55:38.830Z,2918.00
2022-12-31T13:56:38.800Z,2837.00
2022-12-31T13:57:44.870Z,2738.00
2022-12-31T13:58:38.970Z,2638.00
2022-12-31T13:59:38.763Z,2553.00
2022-12-31T14:00:39.063Z,2455.00
2022-12-31T14:01:38.960Z,2407.00
2022-12-31T14:02:38.901Z,2421.00
2022-12-31T14:03:38.779Z,2438.00
2022-12-31T14:04:38.840Z,2415.00
2022-12-31T14:05:38.687Z,2383.00
2022-12-31T14:06:38.717Z,2358.00
2022-12-31T14:07:45.381Z,2296.00
2022-12-31T14:08:39.794Z,2231.00
2022-12-31T14:09:38.781Z,2181.00
2022-12-31T14:10:38.691Z,2177.00
2022-12-31T14:11:38.891Z,2150.00
2022-12-31T14:12:38.710Z,2107.00
2022-12-31T14:13:38.724Z,2092.00
2022-12-31T14:14:38.833Z,2058.00
2022-12-31T14:15:38.658Z,2050.00
2022-12-31T14:16:38.863Z,2046.00
2022-12-31T14:17:38.799Z,2082.00
2022-12-31T14:18:38.635Z,2050.00
2022-12-31T14:19:41.353Z,2033.00
2022-12-31T14:20:38.556Z,1986.00
2022-12-31T14:21:38.553Z,1936.00
2022-12-31T14:22:44.601Z,1920.00
2022-12-31T14:23:38.747Z,1875.00
2022-12-31T14:24:38.512Z,1836.00
2022-12-31T14:25:38.510Z,1813.00
2022-12-31T14:26:38.481Z,1789.00
2022-12-31T14:27:38.453Z,1745.00
2022-12-31T14:28:46.956Z,1678.00
2022-12-31T14:29:44.859Z,1616.00
2022-12-31T14:30:44.460Z,1574.00
2022-12-31T14:31:38.503Z,1556.00
2022-12-31T14:32:38.428Z,1530.00
2022-12-31T14:33:38.388Z,1535.00
2022-12-31T14:34:38.354Z,1554.00
2022-12-31T14:35:38.407Z,1560.00
2022-12-31T14:36:38.405Z,1541.00
2022-12-31T14:37:38.388Z,1512.00
2022-12-31T14:38:38.385Z,1493.00
2022-12-31T14:39:44.394Z,1468.00
2022-12-31T14:40:38.340Z,1441.00
2022-12-31T14:41:38.360Z,1427.00
2022-12-31T14:42:38.556Z,1423.00
2022-12-31T14:43:38.372Z,1419.00
2022-12-31T14:44:38.311Z,1424.00
2022-12-31T14:45:44.374Z,1402.00
2022-12-31T14:46:44.294Z,1383.00
2022-12-31T14:47:44.497Z,1358.00
2022-12-31T14:48:38.234Z,1325.00
2022-12-31T14:49:38.235Z,1287.00
2022-12-31T14:50:38.452Z,1247.00
2022-12-31T14:51:38.192Z,1197.00
2022-12-31T14:52:44.275Z,1150.00
2022-12-31T14:53:38.171Z,1114.00
2022-12-31T14:54:38.202Z,1069.00
2022-12-31T14:55:38.182Z,1025.00
2022-12-31T14:56:38.174Z,986.00
2022-12-31T14:58:28.436Z,905.00
2022-12-31T14:59:23.362Z,925.00
2022-12-31T15:00:23.344Z,909.00
2022-12-31T15:01:23.468Z,892.00
2022-12-31T15:02:23.503Z,875.00
2022-12-31T15:03:23.422Z,842.00
2022-12-31T15:04:23.319Z,816.00
2022-12-31T15:05:23.683Z,783.00
2022-12-31T15:06:23.515Z,758.00
2022-12-31T15:07:23.245Z,726.00
2022-12-31T15:08:23.346Z,702.00
2022-12-31T15:10:32.521Z,590.00
2022-12-31T15:11:32.553Z,617.00
2022-12-31T15:12:38.519Z,590.00
2022-12-31T15:13:32.460Z,558.00
2022-12-31T15:14:37.403Z,540.00
2022-12-31T15:15:32.477Z,522.00
2022-12-31T15:16:32.524Z,501.00
2022-12-31T15:17:32.434Z,483.00
2022-12-31T15:18:32.422Z,464.00
2022-12-31T15:19:32.550Z,440.00
2022-12-31T15:20:32.635Z,414.00
2022-12-31T15:21:32.570Z,392.00
2022-12-31T15:22:32.397Z,380.00
2022-12-31T15:23:32.587Z,358.00
2022-12-31T15:24:32.340Z,337.00
2022-12-31T15:25:38.373Z,328.00
2022-12-31T15:26:39.416Z,309.00
2022-12-31T15:27:32.379Z,291.00
2022-12-31T15:28:32.331Z,272.00
2022-12-31T15:29:32.343Z,253.00
2022-12-31T15:30:32.400Z,239.00
2022-12-31T15:31:32.386Z,223.00
2022-12-31T15:32:32.320Z,211.00
2022-12-31T15:33:38.357Z,201.00
2022-12-31T15:34:32.267Z,188.00
2022-12-31T15:35:32.248Z,178.00
2022-12-31T15:36:32.242Z,168.00
2022-12-31T15:37:32.225Z,160.00
2022-12-31T15:38:32.308Z,142.00
2022-12-31T15:39:38.257Z,120.00
2022-12-31T15:40:32.399Z,105.00
2022-12-31T15:41:32.161Z,91.00
2022-12-31T15:42:40.623Z,85.00
2022-12-31T15:43:32.332Z,79.00
2022-12-31T15:44:32.158Z,70.00
2022-12-31T15:45:32.201Z,64.00
2022-12-31T15:46:32.229Z,57.00
2022-12-31T15:47:32.120Z,54.00
2022-12-31T15:48:32.084Z,48.00
2022-12-31T15:50:08.996Z,40.00
2022-12-31T15:51:08.924Z,40.00
2022-12-31T15:52:08.924Z,36.00
2022-12-31T15:53:08.894Z,35.00
2022-12-31T15:54:09.088Z,31.00
2022-12-31T15:55:08.900Z,29.00
2022-12-31T15:56:08.893Z,22.00
2022-12-31T15:57:09.548Z,12.00
2022-12-31T15:58:08.846Z,7.00
2022-12-31T15:59:08.840Z,9.00
2022-12-31T16:00:14.939Z,10.00
2022-12-31T16:01:09.057Z,9.00
2022-12-31T16:02:14.961Z,13.00
2022-12-31T16:03:08.830Z,15.00
2022-12-31T16:04:14.891Z,11.00
2022-12-31T16:05:15.060Z,5.00
2022-12-31T16:06:08.760Z,8.00
2022-12-31T16:07:14.876Z,7.00
2022-12-31T16:08:08.984Z,5.00
2022-12-31T16:09:14.794Z,5.00
2022-12-31T16:10:08.707Z,3.00
2022-12-31T16:11:08.801Z,3.00
2022-12-31T16:12:09.178Z,2.00
2022-12-31T16:13:08.761Z,1.00
2022-12-31T16:14:08.669Z,2.00
2022-12-31T16:15:08.700Z,1.00
2022-12-31T16:16:08.782Z,1.00
2022-12-31T16:17:08.643Z,1.00
2022-12-31T16:18:08.892Z,0.00
2022-12-31T16:19:08.708Z,0.00
2022-12-31T16:20:08.943Z,0.00
2022-12-31T16:21:08.949Z,0.00
2022-12-31T16:22:14.746Z,0.00
2022-12-31T16:24:08.646Z,0.00
2022-12-31T16:25:30.187Z,0.00
2022-12-31T16:26:09.676Z,0.00
2022-12-31T16:27:08.651Z,0.00
2022-12-31T16:28:10.675Z,0.00
2022-12-31T16:30:08.563Z,0.00
2022-12-31T16:31:10.788Z,0.00
2022-12-31T16:33:09.586Z,0.00
2022-12-31T16:34:08.719Z,0.00
2022-12-31T16:35:17.602Z,0.00
2022-12-31T16:37:08.578Z,0.00
2022-12-31T16:38:08.770Z,0.00
2022-12-31T16:39:08.494Z,0.00
2022-12-31T16:42:08.476Z,0.00
2022-12-31T16:43:08.534Z,0.00
2022-12-31T16:48:14.550Z,0.00
2022-12-31T16:51:08.352Z,0.00
2022-12-31T16:53:08.388Z,0.00
2022-12-31T16:58:08.317Z,0.00
2022-12-31T16:59:08.318Z,0.00
2022-12-31T17:02:08.396Z,0.00
2022-12-31T17:03:08.359Z,0.00
2022-12-31T17:04:08.251Z,0.00
2022-12-31T17:05:08.253Z,0.00
2022-12-31T17:10:08.163Z,0.00
2022-12-31T17:11:18.527Z,0.00
2022-12-31T17:14:08.153Z,0.00
2022-12-31T17:16:08.152Z,0.00
2022-12-31T17:19:08.204Z,0.00
2022-12-31T17:31:14.040Z,0.00
2022-12-31T17:32:07.940Z,0.00
2022-12-31T17:33:07.886Z,0.00
2022-12-31T17:36:48.792Z,0.00
2022-12-31T17:37:48.755Z,0.00
2022-12-31T17:39:25.886Z,0.00
2022-12-31T17:40:50.284Z,0.00
2022-12-31T17:41:27.146Z,0.00
2022-12-31T17:42:26.102Z,0.00
2022-12-31T17:44:25.875Z,0.00
2022-12-31T17:45:25.783Z,0.00
2022-12-31T17:46:26.168Z,0.00
2022-12-31T17:48:31.756Z,0.00
2022-12-31T17:49:25.703Z,0.00
2022-12-31T17:50:25.940Z,0.00
2022-12-31T17:53:25.644Z,0.00
2022-12-31T17:54:25.668Z,0.00
2022-12-31T17:55:25.646Z,0.00
2022-12-31T17:56:25.644Z,0.00
2022-12-31T17:57:25.618Z,0.00
2022-12-31T17:58:29.474Z,0.00
2022-12-31T17:59:25.612Z,0.00
2022-12-31T18:00:25.661Z,0.00
2022-12-31T18:01:25.684Z,0.00
2022-12-31T18:08:25.486Z,0.00
2022-12-31T18:15:25.679Z,0.00
2022-12-31T18:18:26.040Z,0.00
2022-12-31T18:22:25.346Z,0.00
2022-12-31T18:32:25.248Z,0.00
2022-12-31T18:39:10.057Z,0.00
2022-12-31T18:46:10.033Z,0.00
2022-12-31T18:47:10.004Z,0.00
2022-12-31T18:49:09.938Z,0.00
2022-12-31T18:50:16.002Z,0.00
2022-12-31T18:53:09.952Z,0.00
2022-12-31T18:57:09.863Z,0.00
2022-12-31T19:03:09.826Z,0.00
2022-12-31T19:06:09.808Z,0.00
2022-12-31T19:07:09.768Z,0.00
2022-12-31T19:10:10.802Z,0.00
2022-12-31T19:12:09.684Z,0.00
2022-12-31T19:13:09.681Z,0.00
2022-12-31T19:16:09.699Z,0.00
2022-12-31T19:17:41.702Z,0.00
2022-12-31T19:18:47.777Z,0.00
2022-12-31T19:19:42.068Z,0.00
2022-12-31T19:20:41.637Z,0.00
2022-12-31T19:23:41.783Z,0.00
2022-12-31T19:25:41.563Z,0.00
2022-12-31T19:26:43.636Z,0.00
2022-12-31T19:27:47.616Z,0.00
2022-12-31T19:29:41.558Z,0.00
2022-12-31T19:30:41.512Z,0.00
2022-12-31T19:31:41.504Z,0.00
2022-12-31T19:32:41.551Z,0.00
2022-12-31T19:33:41.519Z,0.00
2022-12-31T19:34:41.482Z,0.00
2022-12-31T19:35:41.567Z,0.00
2022-12-31T19:36:44.050Z,0.00
2022-12-31T19:38:41.674Z,0.00
2022-12-31T19:39:41.439Z,0.00
2022-12-31T19:40:47.636Z,0.00
2022-12-31T19:41:41.447Z,0.00
2022-12-31T19:42:41.372Z,0.00
2022-12-31T19:45:47.465Z,0.00
2022-12-31T19:47:41.287Z,0.00
2022-12-31T19:50:41.314Z,0.00
2022-12-31T19:53:41.301Z,0.00